createdAt,value
2023-03-27T00:01:02.488Z,1.97
2023-03-27T00:06:03.396Z,1.95
2023-03-27T00:10:57.340Z,1.91
2023-03-27T00:15:53.943Z,1.90
2023-03-27T00:20:46.777Z,1.87
2023-03-27T00:25:40.935Z,1.85
2023-03-27T00:30:33.860Z,1.83
2023-03-27T00:35:29.817Z,1.81
2023-03-27T00:40:23.304Z,1.78
2023-03-27T00:45:21.930Z,1.71
2023-03-27T00:50:21.710Z,1.63
2023-03-27T00:55:20.146Z,1.57
2023-03-27T01:00:17.123Z,1.50
2023-03-27T01:05:11.617Z,1.45
2023-03-27T01:10:06.997Z,1.38
2023-03-27T01:15:18.595Z,1.29
2023-03-27T01:20:47.136Z,1.19
2023-03-27T01:25:58.873Z,1.10
2023-03-27T01:30:59.867Z,1.01
2023-03-27T01:36:14.922Z,0.99
2023-03-27T01:41:35.382Z,0.97
2023-03-27T01:46:36.888Z,0.94
2023-03-27T01:51:39.604Z,0.92
2023-03-27T01:56:39.488Z,0.91
2023-03-27T02:01:39.737Z,0.88
2023-03-27T02:06:38.987Z,0.83
2023-03-27T02:11:38.020Z,0.79
2023-03-27T02:16:35.706Z,0.73
2023-03-27T02:21:31.529Z,0.68
2023-03-27T02:26:25.407Z,0.66
2023-03-27T02:31:37.529Z,0.63
2023-03-27T02:36:55.451Z,0.62
2023-03-27T02:42:04.525Z,0.59
2023-03-27T02:47:29.088Z,0.55
2023-03-27T02:52:29.512Z,0.52
2023-03-27T02:57:28.009Z,0.50
2023-03-27T03:02:41.405Z,0.44
2023-03-27T03:07:36.274Z,0.38
2023-03-27T03:12:29.106Z,0.31
2023-03-27T03:17:22.268Z,0.25
2023-03-27T03:22:15.613Z,0.22
2023-03-27T03:27:08.856Z,0.18
2023-03-27T03:32:23.425Z,0.10
2023-03-27T03:37:17.629Z,0.07
2023-03-27T03:42:22.895Z,0.05
2023-03-27T03:47:18.371Z,0.00
2023-03-27T03:52:11.233Z,-0.05
2023-03-27T03:57:05.020Z,-0.08
2023-03-27T04:01:59.436Z,-0.12
2023-03-27T04:06:58.494Z,-0.16
2023-03-27T04:11:54.926Z,-0.19
2023-03-27T04:17:09.696Z,-0.18
2023-03-27T04:22:03.588Z,-0.18
2023-03-27T04:27:01.338Z,-0.13
2023-03-27T04:32:09.653Z,-0.05
2023-03-27T04:37:05.744Z,0.09
2023-03-27T04:41:59.540Z,0.17
2023-03-27T04:46:53.776Z,0.28
2023-03-27T04:51:48.202Z,0.41
2023-03-27T04:56:43.048Z,0.51
2023-03-27T05:01:36.419Z,0.56
2023-03-27T05:06:47.436Z,0.63
2023-03-27T05:11:42.487Z,0.68
2023-03-27T05:16:36.235Z,0.72
2023-03-27T05:21:31.029Z,0.81
2023-03-27T05:26:24.074Z,0.89
2023-03-27T05:31:22.479Z,0.96
2023-03-27T05:36:23.289Z,1.03
2023-03-27T05:41:16.980Z,1.13
2023-03-27T05:46:13.645Z,1.33
2023-03-27T05:51:18.805Z,1.54
2023-03-27T05:56:14.454Z,1.70
2023-03-27T06:01:18.947Z,1.91
2023-03-27T06:06:13.812Z,2.14
2023-03-27T06:11:13.554Z,2.36
2023-03-27T06:16:15.689Z,2.57
2023-03-27T06:21:08.671Z,2.72
2023-03-27T06:26:02.108Z,2.90
2023-03-27T06:30:58.240Z,3.18
2023-03-27T06:36:00.847Z,3.46
2023-03-27T06:40:59.787Z,3.73
2023-03-27T06:46:07.128Z,4.05
2023-03-27T06:51:27.140Z,4.37
2023-03-27T06:56:20.396Z,4.65
2023-03-27T07:01:32.523Z,5.08
2023-03-27T07:06:40.685Z,5.42
2023-03-27T07:11:36.209Z,5.54
2023-03-27T07:16:33.963Z,5.46
2023-03-27T07:21:26.902Z,5.37
2023-03-27T07:26:22.973Z,5.50
2023-03-27T07:36:45.070Z,6.39
2023-03-27T07:41:38.316Z,7.42
2023-03-27T07:46:53.731Z,8.24
2023-03-27T07:51:47.468Z,11.52
2023-03-27T07:56:43.070Z,13.16
2023-03-27T08:01:54.397Z,12.62
2023-03-27T08:06:51.570Z,11.87
2023-03-27T08:11:46.843Z,11.57
2023-03-27T08:16:41.908Z,10.38
2023-03-27T08:21:35.515Z,9.59
2023-03-27T08:26:28.912Z,9.10
2023-03-27T08:31:24.226Z,8.64
2023-03-27T08:36:20.186Z,8.26
2023-03-27T08:41:30.800Z,7.89
2023-03-27T08:46:59.339Z,7.58
2023-03-27T08:51:56.949Z,7.46
2023-03-27T08:56:51.702Z,7.53
2023-03-27T09:01:59.924Z,7.74
2023-03-27T09:07:08.274Z,8.24
2023-03-27T09:12:40.548Z,8.21
2023-03-27T09:17:40.559Z,8.25
2023-03-27T09:22:45.001Z,8.17
2023-03-27T09:27:45.843Z,8.01
2023-03-27T09:33:03.635Z,8.18
2023-03-27T09:38:03.725Z,8.33
2023-03-27T09:43:01.290Z,8.23
2023-03-27T09:47:58.157Z,8.04
2023-03-27T09:52:55.310Z,8.00
2023-03-27T09:58:16.886Z,8.20
2023-03-27T10:03:19.826Z,8.61
2023-03-27T10:08:27.292Z,8.58
2023-03-27T10:13:37.468Z,8.23
2023-03-27T10:18:33.143Z,8.07
2023-03-27T10:23:44.294Z,7.89
2023-03-27T10:28:54.133Z,7.75
2023-03-27T10:33:51.186Z,7.63
2023-03-27T10:39:15.480Z,7.66
2023-03-27T10:44:29.179Z,7.62
2023-03-27T10:49:34.687Z,7.46
2023-03-27T10:54:43.890Z,7.49
2023-03-27T11:00:07.580Z,7.67
2023-03-27T11:05:36.461Z,7.98
2023-03-27T11:10:42.141Z,8.31
2023-03-27T11:15:43.473Z,8.50
2023-03-27T11:21:28.722Z,8.37
2023-03-27T11:26:39.626Z,8.13
2023-03-27T11:31:46.523Z,8.22
2023-03-27T11:36:57.452Z,8.55
2023-03-27T11:42:05.342Z,9.29
2023-03-27T11:47:29.958Z,10.87
2023-03-27T11:53:01.508Z,10.03
2023-03-27T11:58:33.176Z,8.92
2023-03-27T12:04:00.250Z,8.35
2023-03-27T12:09:27.816Z,8.75
2023-03-27T12:15:14.012Z,8.74
2023-03-27T12:20:52.762Z,8.39
2023-03-27T12:26:27.382Z,8.00
2023-03-27T12:31:49.458Z,8.15
2023-03-27T12:36:48.337Z,8.45
2023-03-27T12:41:45.682Z,8.50
2023-03-27T12:47:18.271Z,8.21
2023-03-27T12:52:12.995Z,8.13
2023-03-27T12:57:19.324Z,8.72
2023-03-27T13:02:16.766Z,8.64
2023-03-27T13:07:44.841Z,8.20
2023-03-27T13:13:00.745Z,8.06
2023-03-27T13:18:43.193Z,8.39
2023-03-27T13:24:00.710Z,8.39
2023-03-27T13:28:56.674Z,8.12
2023-03-27T13:34:12.470Z,7.85
2023-03-27T13:39:08.033Z,7.69
2023-03-27T13:44:02.322Z,7.65
2023-03-27T13:49:27.346Z,7.67
2023-03-27T13:54:47.724Z,7.51
2023-03-27T13:59:53.032Z,7.16
2023-03-27T14:05:43.730Z,6.85
2023-03-27T14:11:01.336Z,6.66
2023-03-27T14:16:13.686Z,6.59
2023-03-27T14:21:13.873Z,6.61
2023-03-27T14:26:21.498Z,6.67
2023-03-27T14:31:19.105Z,6.68
2023-03-27T14:36:30.281Z,6.51
2023-03-27T14:41:25.686Z,6.26
2023-03-27T14:46:24.422Z,6.00
2023-03-27T14:51:21.858Z,5.81
2023-03-27T14:56:37.933Z,5.68
2023-03-27T15:01:55.822Z,5.54
2023-03-27T15:06:50.209Z,5.37
2023-03-27T15:12:04.297Z,5.19
2023-03-27T15:17:09.369Z,5.05
2023-03-27T15:22:07.740Z,4.93
2023-03-27T15:27:02.026Z,4.82
2023-03-27T15:31:59.846Z,4.70
2023-03-27T15:37:00.455Z,4.65
2023-03-27T15:41:57.193Z,4.59
2023-03-27T15:46:54.421Z,4.50
2023-03-27T15:51:47.294Z,4.39
2023-03-27T15:56:44.707Z,4.26
2023-03-27T16:01:44.197Z,4.18
2023-03-27T16:06:41.048Z,4.10
2023-03-27T16:11:45.911Z,4.02
2023-03-27T16:16:38.751Z,3.95
2023-03-27T16:21:36.238Z,3.93
2023-03-27T16:26:31.837Z,3.82
2023-03-27T16:31:24.881Z,3.72
2023-03-27T16:36:21.475Z,3.59
2023-03-27T16:41:16.167Z,3.55
2023-03-27T16:46:18.339Z,3.53
2023-03-27T16:51:11.352Z,3.51
2023-03-27T16:56:05.211Z,3.46
2023-03-27T17:00:58.547Z,3.43
2023-03-27T17:05:51.946Z,3.38
2023-03-27T17:10:45.900Z,3.30
2023-03-27T17:15:40.408Z,3.23
2023-03-27T17:20:33.393Z,3.19
2023-03-27T17:25:26.558Z,3.15
2023-03-27T17:30:30.662Z,3.12
2023-03-27T17:35:27.923Z,3.09
2023-03-27T17:40:20.736Z,3.03
2023-03-27T17:45:13.549Z,3.00
2023-03-27T17:50:07.002Z,2.94
2023-03-27T17:55:00.035Z,2.86
2023-03-27T17:59:52.957Z,2.81
2023-03-27T18:04:47.982Z,2.79
2023-03-27T18:09:40.798Z,2.78
2023-03-27T18:14:33.659Z,2.77
2023-03-27T18:19:26.523Z,2.77
2023-03-27T18:24:19.466Z,2.73
2023-03-27T18:29:12.463Z,2.70
2023-03-27T18:34:05.265Z,2.70
2023-03-27T18:38:58.646Z,2.66
2023-03-27T18:43:51.492Z,2.60
2023-03-27T18:48:45.624Z,2.49
2023-03-27T18:53:38.441Z,2.38
2023-03-27T18:58:31.276Z,2.24
2023-03-27T19:03:25.957Z,2.13
2023-03-27T19:08:20.066Z,2.01
2023-03-27T19:13:12.990Z,1.92
2023-03-27T19:18:30.089Z,1.79
2023-03-27T19:23:41.511Z,1.70
2023-03-27T19:28:34.354Z,1.62
2023-03-27T19:33:28.207Z,1.51
2023-03-27T19:38:21.617Z,1.42
2023-03-27T19:43:15.803Z,1.35
2023-03-27T19:48:08.924Z,1.28
2023-03-27T19:53:08.757Z,1.19
2023-03-27T19:58:02.106Z,1.13
2023-03-27T20:02:55.155Z,1.04
2023-03-27T20:07:48.009Z,0.98
2023-03-27T20:12:41.321Z,0.95
2023-03-27T20:17:34.590Z,0.89
2023-03-27T20:22:29.727Z,0.82
2023-03-27T20:27:23.186Z,0.73
2023-03-27T20:32:16.353Z,0.66
2023-03-27T20:37:12.157Z,0.61
2023-03-27T20:42:31.072Z,0.52
2023-03-27T20:47:23.909Z,0.46
2023-03-27T20:52:22.937Z,0.42
2023-03-27T20:57:16.225Z,0.35
2023-03-27T21:02:16.841Z,0.29
2023-03-27T21:07:09.758Z,0.22
2023-03-27T21:12:02.912Z,0.11
2023-03-27T21:16:55.916Z,0.03
2023-03-27T21:21:49.878Z,-0.06
2023-03-27T21:26:42.984Z,-0.14
2023-03-27T21:31:36.157Z,-0.21
2023-03-27T21:36:29.881Z,-0.29
2023-03-27T21:41:23.910Z,-0.36
2023-03-27T21:46:17.421Z,-0.46
2023-03-27T21:51:10.412Z,-0.54
2023-03-27T21:56:03.864Z,-0.60
2023-03-27T22:00:58.348Z,-0.65
2023-03-27T22:05:57.775Z,-0.73
2023-03-27T22:10:59.537Z,-0.76
2023-03-27T22:15:52.434Z,-0.79
2023-03-27T22:20:45.261Z,-0.80
2023-03-27T22:25:38.047Z,-0.85
2023-03-27T22:30:30.920Z,-0.90
2023-03-27T22:35:23.815Z,-1.02
2023-03-27T22:40:16.773Z,-1.11
2023-03-27T22:45:10.489Z,-1.18
2023-03-27T22:50:05.513Z,-1.25
2023-03-27T22:54:58.288Z,-1.34
2023-03-27T22:59:51.409Z,-1.39
2023-03-27T23:04:44.232Z,-1.43
2023-03-27T23:09:37.198Z,-1.46
2023-03-27T23:14:30.002Z,-1.52
2023-03-27T23:19:22.831Z,-1.61
2023-03-27T23:24:15.988Z,-1.68
2023-03-27T23:29:08.958Z,-1.69
2023-03-27T23:34:01.828Z,-1.71
2023-03-27T23:38:56.623Z,-1.73
2023-03-27T23:43:49.547Z,-1.77
2023-03-27T23:48:44.443Z,-1.83
2023-03-27T23:53:37.871Z,-1.84
2023-03-27T23:58:32.747Z,-1.91
